Archival Weather

Chicago O'Hare International

Chicago, Illinois (KORD)

Report from: Sunday, November 19, 2023 3:51 PM CST
Current time: Thursday, July 18, 2024 9:46 PM CDT

Current weather – Weather history – Daily summaries
Weather forecast

Temperature9.4°C (48.9°F)
Wind chill7.2°C (45.0°F)
Dew point2.2°C (36.0°F)
Winds 8 kts (4.1 m/s, 9.2 mph) Northeast (50°)
Visibility10 mi. (16.1 km)
Clouds Few clouds 2,000 ft. (610 m)
Ceiling: Broken clouds 25,000 ft. (7,620 m)
Altimeter30.05 in.Hg (1018 mB)
Relative humidity61 %
Density altitude-724 ft. (-221 m)
Sea-level pressure101.8 kPa (1018 mB, 30.06 in.Hg)
Remarks Automated weather observing station with precipitation discriminator
Flight conditions Visual Meteorological Conditions
Raw dataKORD 192151Z 05008KT 10SM FEW020 BKN250 09/02 A3005 RMK AO2 SLP180 FU FEW020 T00940022
An error has occurred. This application may no longer respond until reloaded. Reload 🗙